sensor_id;sensor_type;location;lat;lon;timestamp;P1;durP1;ratioP1;P2;durP2;ratioP2
3193;SDS011;1608;50.860;13.466;2022-10-03T00:00:08;13.27;;;4.20;;
3193;SDS011;1608;50.860;13.466;2022-10-03T00:05:43;10.00;;;4.40;;
3193;SDS011;1608;50.860;13.466;2022-10-03T00:08:32;15.37;;;5.33;;
3193;SDS011;1608;50.860;13.466;2022-10-03T00:11:20;8.70;;;4.33;;
3193;SDS011;1608;50.860;13.466;2022-10-03T00:13:56;10.67;;;4.50;;
3193;SDS011;1608;50.860;13.466;2022-10-03T00:16:32;8.93;;;4.23;;
3193;SDS011;1608;50.860;13.466;2022-10-03T00:19:13;12.83;;;5.00;;
3193;SDS011;1608;50.860;13.466;2022-10-03T00:21:52;15.10;;;5.17;;
3193;SDS011;1608;50.860;13.466;2022-10-03T00:24:28;9.97;;;4.27;;
3193;SDS011;1608;50.860;13.466;2022-10-03T00:27:05;10.60;;;5.17;;
3193;SDS011;1608;50.860;13.466;2022-10-03T00:29:46;9.70;;;5.30;;
3193;SDS011;1608;50.860;13.466;2022-10-03T00:32:32;16.23;;;5.37;;
3193;SDS011;1608;50.860;13.466;2022-10-03T00:35:17;16.80;;;5.30;;
3193;SDS011;1608;50.860;13.466;2022-10-03T00:38:00;10.13;;;4.80;;
3193;SDS011;1608;50.860;13.466;2022-10-03T00:40:47;14.17;;;4.97;;
3193;SDS011;1608;50.860;13.466;2022-10-03T00:46:55;7.67;;;4.37;;
3193;SDS011;1608;50.860;13.466;2022-10-03T00:49:52;9.23;;;5.20;;
3193;SDS011;1608;50.860;13.466;2022-10-03T00:52:47;11.47;;;5.53;;
3193;SDS011;1608;50.860;13.466;2022-10-03T00:55:30;23.50;;;5.97;;
3193;SDS011;1608;50.860;13.466;2022-10-03T00:58:13;18.53;;;6.10;;
3193;SDS011;1608;50.860;13.466;2022-10-03T01:00:58;10.83;;;5.30;;
3193;SDS011;1608;50.860;13.466;2022-10-03T01:03:48;11.33;;;5.80;;
3193;SDS011;1608;50.860;13.466;2022-10-03T01:06:25;15.43;;;6.00;;
3193;SDS011;1608;50.860;13.466;2022-10-03T01:09:13;11.63;;;5.43;;
3193;SDS011;1608;50.860;13.466;2022-10-03T01:11:56;14.30;;;5.33;;
3193;SDS011;1608;50.860;13.466;2022-10-03T01:14:46;12.83;;;5.23;;
3193;SDS011;1608;50.860;13.466;2022-10-03T01:17:28;10.27;;;5.37;;
3193;SDS011;1608;50.860;13.466;2022-10-03T01:20:05;9.23;;;4.93;;
3193;SDS011;1608;50.860;13.466;2022-10-03T01:22:47;10.63;;;5.00;;
3193;SDS011;1608;50.860;13.466;2022-10-03T01:25:38;13.73;;;5.60;;
3193;SDS011;1608;50.860;13.466;2022-10-03T01:31:32;12.73;;;4.70;;
3193;SDS011;1608;50.860;13.466;2022-10-03T01:34:06;13.53;;;5.53;;
3193;SDS011;1608;50.860;13.466;2022-10-03T01:36:43;11.20;;;5.70;;
3193;SDS011;1608;50.860;13.466;2022-10-03T01:39:18;11.43;;;6.27;;
3193;SDS011;1608;50.860;13.466;2022-10-03T01:41:53;11.37;;;4.97;;
3193;SDS011;1608;50.860;13.466;2022-10-03T01:44:27;21.03;;;5.23;;
3193;SDS011;1608;50.860;13.466;2022-10-03T01:47:13;10.60;;;4.80;;
3193;SDS011;1608;50.860;13.466;2022-10-03T01:49:47;12.37;;;4.30;;
3193;SDS011;1608;50.860;13.466;2022-10-03T01:52:23;13.57;;;4.70;;
3193;SDS011;1608;50.860;13.466;2022-10-03T01:54:58;7.83;;;4.27;;
3193;SDS011;1608;50.860;13.466;2022-10-03T01:57:33;11.13;;;5.00;;
3193;SDS011;1608;50.860;13.466;2022-10-03T02:00:09;13.93;;;5.73;;
3193;SDS011;1608;50.860;13.466;2022-10-03T02:02:41;10.13;;;4.67;;
3193;SDS011;1608;50.860;13.466;2022-10-03T02:05:14;11.47;;;5.60;;
3193;SDS011;1608;50.860;13.466;2022-10-03T02:07:49;9.70;;;4.80;;
3193;SDS011;1608;50.860;13.466;2022-10-03T02:10:23;13.50;;;5.83;;
3193;SDS011;1608;50.860;13.466;2022-10-03T02:12:58;19.97;;;6.00;;
3193;SDS011;1608;50.860;13.466;2022-10-03T02:15:33;16.23;;;7.30;;
3193;SDS011;1608;50.860;13.466;2022-10-03T02:18:13;15.10;;;5.40;;
3193;SDS011;1608;50.860;13.466;2022-10-03T02:20:48;16.93;;;6.27;;
3193;SDS011;1608;50.860;13.466;2022-10-03T02:23:22;19.30;;;6.80;;
3193;SDS011;1608;50.860;13.466;2022-10-03T02:26:06;9.20;;;6.20;;
3193;SDS011;1608;50.860;13.466;2022-10-03T02:28:58;15.43;;;6.93;;
3193;SDS011;1608;50.860;13.466;2022-10-03T02:32:02;27.20;;;7.87;;
3193;SDS011;1608;50.860;13.466;2022-10-03T02:34:58;13.07;;;4.90;;
3193;SDS011;1608;50.860;13.466;2022-10-03T02:50:04;13.63;;;6.80;;
3193;SDS011;1608;50.860;13.466;2022-10-03T02:52:53;14.67;;;7.37;;
3193;SDS011;1608;50.860;13.466;2022-10-03T02:55:55;17.00;;;6.80;;
3193;SDS011;1608;50.860;13.466;2022-10-03T02:58:54;15.23;;;7.30;;
3193;SDS011;1608;50.860;13.466;2022-10-03T03:02:13;17.10;;;7.13;;
3193;SDS011;1608;50.860;13.466;2022-10-03T03:05:12;9.27;;;6.27;;
3193;SDS011;1608;50.860;13.466;2022-10-03T03:11:06;25.23;;;8.30;;
3193;SDS011;1608;50.860;13.466;2022-10-03T03:14:01;20.37;;;6.70;;
3193;SDS011;1608;50.860;13.466;2022-10-03T03:19:37;23.80;;;8.47;;
3193;SDS011;1608;50.860;13.466;2022-10-03T03:22:21;16.93;;;6.23;;
3193;SDS011;1608;50.860;13.466;2022-10-03T03:25:06;19.87;;;6.37;;
3193;SDS011;1608;50.860;13.466;2022-10-03T03:27:46;18.00;;;6.17;;
3193;SDS011;1608;50.860;13.466;2022-10-03T03:30:22;12.43;;;5.07;;
3193;SDS011;1608;50.860;13.466;2022-10-03T03:33:01;10.83;;;5.30;;
3193;SDS011;1608;50.860;13.466;2022-10-03T03:35:39;7.80;;;5.63;;
3193;SDS011;1608;50.860;13.466;2022-10-03T03:38:21;16.87;;;5.20;;
3193;SDS011;1608;50.860;13.466;2022-10-03T03:40:55;14.63;;;5.83;;
3193;SDS011;1608;50.860;13.466;2022-10-03T03:43:42;21.43;;;6.97;;
3193;SDS011;1608;50.860;13.466;2022-10-03T03:46:39;15.80;;;7.30;;
3193;SDS011;1608;50.860;13.466;2022-10-03T03:49:21;14.90;;;6.87;;
3193;SDS011;1608;50.860;13.466;2022-10-03T03:52:00;14.90;;;6.30;;
3193;SDS011;1608;50.860;13.466;2022-10-03T03:54:50;10.30;;;5.77;;
3193;SDS011;1608;50.860;13.466;2022-10-03T03:57:40;14.13;;;5.77;;
3193;SDS011;1608;50.860;13.466;2022-10-03T04:00:21;17.60;;;5.93;;
3193;SDS011;1608;50.860;13.466;2022-10-03T04:03:12;17.47;;;6.83;;
3193;SDS011;1608;50.860;13.466;2022-10-03T04:05:55;23.43;;;6.73;;
3193;SDS011;1608;50.860;13.466;2022-10-03T04:08:39;16.23;;;7.87;;
3193;SDS011;1608;50.860;13.466;2022-10-03T04:11:17;15.70;;;6.00;;
3193;SDS011;1608;50.860;13.466;2022-10-03T04:13:57;12.47;;;6.23;;
3193;SDS011;1608;50.860;13.466;2022-10-03T04:16:46;14.93;;;6.87;;
3193;SDS011;1608;50.860;13.466;2022-10-03T04:19:43;12.20;;;6.97;;
3193;SDS011;1608;50.860;13.466;2022-10-03T04:22:26;8.73;;;5.97;;
3193;SDS011;1608;50.860;13.466;2022-10-03T04:25:15;11.23;;;5.90;;
3193;SDS011;1608;50.860;13.466;2022-10-03T04:28:02;11.60;;;6.63;;
3193;SDS011;1608;50.860;13.466;2022-10-03T04:30:44;10.90;;;5.57;;
3193;SDS011;1608;50.860;13.466;2022-10-03T04:33:24;14.77;;;6.90;;
3193;SDS011;1608;50.860;13.466;2022-10-03T04:38:53;16.53;;;7.60;;
3193;SDS011;1608;50.860;13.466;2022-10-03T04:41:31;16.50;;;6.70;;
3193;SDS011;1608;50.860;13.466;2022-10-03T04:44:08;10.13;;;6.50;;
3193;SDS011;1608;50.860;13.466;2022-10-03T04:46:47;18.50;;;7.70;;
3193;SDS011;1608;50.860;13.466;2022-10-03T04:49:21;12.13;;;8.17;;
3193;SDS011;1608;50.860;13.466;2022-10-03T04:51:56;14.57;;;6.83;;
3193;SDS011;1608;50.860;13.466;2022-10-03T04:54:29;12.20;;;8.27;;
3193;SDS011;1608;50.860;13.466;2022-10-03T04:57:14;14.27;;;8.20;;
3193;SDS011;1608;50.860;13.466;2022-10-03T04:59:53;14.00;;;8.70;;
3193;SDS011;1608;50.860;13.466;2022-10-03T05:02:29;17.20;;;8.67;;
3193;SDS011;1608;50.860;13.466;2022-10-03T05:08:02;12.77;;;7.73;;
3193;SDS011;1608;50.860;13.466;2022-10-03T05:10:43;14.97;;;7.77;;
3193;SDS011;1608;50.860;13.466;2022-10-03T05:13:21;13.03;;;7.20;;
3193;SDS011;1608;50.860;13.466;2022-10-03T05:16:05;11.83;;;8.00;;
3193;SDS011;1608;50.860;13.466;2022-10-03T05:18:40;16.47;;;7.93;;
3193;SDS011;1608;50.860;13.466;2022-10-03T05:21:13;11.97;;;7.03;;
3193;SDS011;1608;50.860;13.466;2022-10-03T05:23:52;16.70;;;6.47;;
3193;SDS011;1608;50.860;13.466;2022-10-03T05:26:30;9.23;;;5.70;;
3193;SDS011;1608;50.860;13.466;2022-10-03T05:29:09;7.83;;;6.37;;
3193;SDS011;1608;50.860;13.466;2022-10-03T05:31:47;13.93;;;7.00;;
3193;SDS011;1608;50.860;13.466;2022-10-03T05:34:24;11.80;;;6.50;;
3193;SDS011;1608;50.860;13.466;2022-10-03T05:37:08;12.53;;;6.77;;
3193;SDS011;1608;50.860;13.466;2022-10-03T05:39:52;10.40;;;6.00;;
3193;SDS011;1608;50.860;13.466;2022-10-03T05:42:38;13.87;;;6.70;;
3193;SDS011;1608;50.860;13.466;2022-10-03T05:45:27;10.53;;;6.20;;
3193;SDS011;1608;50.860;13.466;2022-10-03T05:48:09;13.63;;;6.80;;
3193;SDS011;1608;50.860;13.466;2022-10-03T05:50:51;13.73;;;8.10;;
3193;SDS011;1608;50.860;13.466;2022-10-03T05:53:52;13.07;;;6.20;;
3193;SDS011;1608;50.860;13.466;2022-10-03T05:56:37;13.63;;;6.97;;
3193;SDS011;1608;50.860;13.466;2022-10-03T06:02:39;15.23;;;6.93;;
3193;SDS011;1608;50.860;13.466;2022-10-03T06:05:30;13.20;;;8.50;;
3193;SDS011;1608;50.860;13.466;2022-10-03T06:08:16;12.77;;;6.60;;
3193;SDS011;1608;50.860;13.466;2022-10-03T06:11:09;10.93;;;6.70;;
3193;SDS011;1608;50.860;13.466;2022-10-03T06:13:53;11.90;;;7.20;;
3193;SDS011;1608;50.860;13.466;2022-10-03T06:16:42;8.87;;;6.77;;
3193;SDS011;1608;50.860;13.466;2022-10-03T06:19:23;18.63;;;8.23;;
3193;SDS011;1608;50.860;13.466;2022-10-03T06:28:12;17.43;;;7.83;;
3193;SDS011;1608;50.860;13.466;2022-10-03T06:31:13;15.07;;;7.00;;
3193;SDS011;1608;50.860;13.466;2022-10-03T06:37:18;15.80;;;7.10;;
3193;SDS011;1608;50.860;13.466;2022-10-03T06:46:19;10.83;;;5.60;;
3193;SDS011;1608;50.860;13.466;2022-10-03T06:52:20;11.57;;;6.53;;
3193;SDS011;1608;50.860;13.466;2022-10-03T06:55:24;9.30;;;5.00;;
3193;SDS011;1608;50.860;13.466;2022-10-03T07:01:30;13.70;;;7.10;;
3193;SDS011;1608;50.860;13.466;2022-10-03T07:04:21;7.90;;;5.30;;
3193;SDS011;1608;50.860;13.466;2022-10-03T07:07:24;9.30;;;5.60;;
3193;SDS011;1608;50.860;13.466;2022-10-03T07:10:16;11.07;;;6.23;;
3193;SDS011;1608;50.860;13.466;2022-10-03T07:12:59;10.37;;;6.00;;
3193;SDS011;1608;50.860;13.466;2022-10-03T07:15:55;11.73;;;4.17;;
3193;SDS011;1608;50.860;13.466;2022-10-03T07:21:43;9.87;;;5.27;;
3193;SDS011;1608;50.860;13.466;2022-10-03T07:24:34;5.50;;;4.20;;
3193;SDS011;1608;50.860;13.466;2022-10-03T07:27:34;7.63;;;4.27;;
3193;SDS011;1608;50.860;13.466;2022-10-03T07:30:12;10.67;;;4.00;;
3193;SDS011;1608;50.860;13.466;2022-10-03T07:39:10;5.57;;;4.33;;
3193;SDS011;1608;50.860;13.466;2022-10-03T07:42:07;8.87;;;4.20;;
3193;SDS011;1608;50.860;13.466;2022-10-03T07:45:00;11.70;;;5.00;;
3193;SDS011;1608;50.860;13.466;2022-10-03T07:57:01;16.67;;;5.50;;
3193;SDS011;1608;50.860;13.466;2022-10-03T08:00:07;8.17;;;4.97;;
3193;SDS011;1608;50.860;13.466;2022-10-03T08:12:02;13.57;;;4.90;;
3193;SDS011;1608;50.860;13.466;2022-10-03T08:14:56;9.70;;;4.50;;
3193;SDS011;1608;50.860;13.466;2022-10-03T08:17:55;8.00;;;5.60;;
3193;SDS011;1608;50.860;13.466;2022-10-03T08:20:38;10.43;;;4.40;;
3193;SDS011;1608;50.860;13.466;2022-10-03T08:26:20;13.20;;;4.97;;
3193;SDS011;1608;50.860;13.466;2022-10-03T08:31:59;8.20;;;5.30;;
3193;SDS011;1608;50.860;13.466;2022-10-03T08:44:26;6.37;;;4.20;;
3193;SDS011;1608;50.860;13.466;2022-10-03T08:47:17;10.10;;;4.00;;
3193;SDS011;1608;50.860;13.466;2022-10-03T08:50:15;15.17;;;5.13;;
3193;SDS011;1608;50.860;13.466;2022-10-03T08:53:05;7.03;;;3.60;;
3193;SDS011;1608;50.860;13.466;2022-10-03T08:55:50;7.20;;;4.57;;
3193;SDS011;1608;50.860;13.466;2022-10-03T09:10:59;6.40;;;4.77;;
3193;SDS011;1608;50.860;13.466;2022-10-03T09:13:53;6.60;;;3.90;;
3193;SDS011;1608;50.860;13.466;2022-10-03T09:16:51;10.47;;;5.13;;
3193;SDS011;1608;50.860;13.466;2022-10-03T09:19:32;6.03;;;5.43;;
3193;SDS011;1608;50.860;13.466;2022-10-03T09:22:18;15.30;;;5.23;;
3193;SDS011;1608;50.860;13.466;2022-10-03T09:25:19;7.30;;;4.73;;
3193;SDS011;1608;50.860;13.466;2022-10-03T09:30:49;6.47;;;3.67;;
3193;SDS011;1608;50.860;13.466;2022-10-03T09:33:35;7.07;;;5.50;;
3193;SDS011;1608;50.860;13.466;2022-10-03T09:39:58;8.70;;;5.30;;
3193;SDS011;1608;50.860;13.466;2022-10-03T09:48:40;10.00;;;5.60;;
3193;SDS011;1608;50.860;13.466;2022-10-03T09:51:47;8.33;;;4.90;;
3193;SDS011;1608;50.860;13.466;2022-10-03T09:54:36;11.63;;;5.27;;
3193;SDS011;1608;50.860;13.466;2022-10-03T09:57:31;10.70;;;4.57;;
3193;SDS011;1608;50.860;13.466;2022-10-03T10:00:20;8.97;;;4.23;;
3193;SDS011;1608;50.860;13.466;2022-10-03T10:02:56;7.17;;;4.13;;
3193;SDS011;1608;50.860;13.466;2022-10-03T10:12:11;10.00;;;4.60;;
3193;SDS011;1608;50.860;13.466;2022-10-03T10:18:10;9.83;;;4.60;;
3193;SDS011;1608;50.860;13.466;2022-10-03T10:21:02;12.13;;;5.13;;
3193;SDS011;1608;50.860;13.466;2022-10-03T10:23:50;6.70;;;3.67;;
3193;SDS011;1608;50.860;13.466;2022-10-03T10:29:38;6.37;;;3.90;;
3193;SDS011;1608;50.860;13.466;2022-10-03T10:32:43;6.90;;;4.00;;
3193;SDS011;1608;50.860;13.466;2022-10-03T10:36:15;7.97;;;5.03;;
3193;SDS011;1608;50.860;13.466;2022-10-03T10:39:17;8.53;;;3.70;;
3193;SDS011;1608;50.860;13.466;2022-10-03T10:45:31;11.43;;;3.80;;
3193;SDS011;1608;50.860;13.466;2022-10-03T10:57:28;5.83;;;3.30;;
3193;SDS011;1608;50.860;13.466;2022-10-03T11:00:20;2.60;;;2.27;;
3193;SDS011;1608;50.860;13.466;2022-10-03T11:15:38;2.97;;;2.33;;
3193;SDS011;1608;50.860;13.466;2022-10-03T11:18:46;7.57;;;3.17;;
3193;SDS011;1608;50.860;13.466;2022-10-03T11:21:50;8.23;;;2.23;;
3193;SDS011;1608;50.860;13.466;2022-10-03T11:37:08;5.87;;;2.20;;
3193;SDS011;1608;50.860;13.466;2022-10-03T11:39:46;10.30;;;4.00;;
3193;SDS011;1608;50.860;13.466;2022-10-03T11:42:25;11.10;;;2.77;;
3193;SDS011;1608;50.860;13.466;2022-10-03T11:44:59;7.77;;;2.40;;
3193;SDS011;1608;50.860;13.466;2022-10-03T11:47:44;4.17;;;2.13;;
3193;SDS011;1608;50.860;13.466;2022-10-03T11:50:27;2.93;;;1.90;;
3193;SDS011;1608;50.860;13.466;2022-10-03T11:53:13;10.67;;;3.10;;
3193;SDS011;1608;50.860;13.466;2022-10-03T11:55:46;8.83;;;2.30;;
3193;SDS011;1608;50.860;13.466;2022-10-03T11:58:26;5.90;;;2.30;;
3193;SDS011;1608;50.860;13.466;2022-10-03T12:01:04;4.20;;;2.70;;
3193;SDS011;1608;50.860;13.466;2022-10-03T12:03:44;6.53;;;2.40;;
3193;SDS011;1608;50.860;13.466;2022-10-03T12:06:22;6.30;;;2.63;;
3193;SDS011;1608;50.860;13.466;2022-10-03T12:09:28;9.13;;;3.10;;
3193;SDS011;1608;50.860;13.466;2022-10-03T12:12:04;10.63;;;4.27;;
3193;SDS011;1608;50.860;13.466;2022-10-03T12:14:37;11.27;;;2.70;;
3193;SDS011;1608;50.860;13.466;2022-10-03T12:17:11;11.97;;;2.70;;
3193;SDS011;1608;50.860;13.466;2022-10-03T12:19:44;4.23;;;2.43;;
3193;SDS011;1608;50.860;13.466;2022-10-03T12:25:16;9.60;;;3.43;;
3193;SDS011;1608;50.860;13.466;2022-10-03T12:27:50;4.80;;;2.20;;
3193;SDS011;1608;50.860;13.466;2022-10-03T12:30:26;5.10;;;2.60;;
3193;SDS011;1608;50.860;13.466;2022-10-03T12:33:02;2.93;;;2.10;;
3193;SDS011;1608;50.860;13.466;2022-10-03T12:35:41;9.13;;;2.90;;
3193;SDS011;1608;50.860;13.466;2022-10-03T12:38:16;6.43;;;2.90;;
3193;SDS011;1608;50.860;13.466;2022-10-03T12:40:57;4.70;;;2.27;;
3193;SDS011;1608;50.860;13.466;2022-10-03T12:43:38;4.13;;;3.00;;
3193;SDS011;1608;50.860;13.466;2022-10-03T12:46:17;9.67;;;3.07;;
3193;SDS011;1608;50.860;13.466;2022-10-03T12:48:55;7.37;;;2.40;;
3193;SDS011;1608;50.860;13.466;2022-10-03T12:51:33;4.73;;;2.53;;
3193;SDS011;1608;50.860;13.466;2022-10-03T12:54:17;5.33;;;2.50;;
3193;SDS011;1608;50.860;13.466;2022-10-03T12:57:20;3.03;;;2.50;;
3193;SDS011;1608;50.860;13.466;2022-10-03T13:00:13;11.77;;;3.03;;
3193;SDS011;1608;50.860;13.466;2022-10-03T13:02:46;3.87;;;2.67;;
3193;SDS011;1608;50.860;13.466;2022-10-03T13:08:27;4.50;;;2.40;;
3193;SDS011;1608;50.860;13.466;2022-10-03T13:11:10;5.40;;;2.23;;
3193;SDS011;1608;50.860;13.466;2022-10-03T13:13:51;5.03;;;2.43;;
3193;SDS011;1608;50.860;13.466;2022-10-03T13:16:30;5.97;;;2.60;;
3193;SDS011;1608;50.860;13.466;2022-10-03T13:19:03;6.70;;;2.10;;
3193;SDS011;1608;50.860;13.466;2022-10-03T13:21:49;6.40;;;2.60;;
3193;SDS011;1608;50.860;13.466;2022-10-03T13:24:30;5.13;;;2.90;;
3193;SDS011;1608;50.860;13.466;2022-10-03T13:27:07;5.43;;;2.87;;
3193;SDS011;1608;50.860;13.466;2022-10-03T13:29:42;4.90;;;2.40;;
3193;SDS011;1608;50.860;13.466;2022-10-03T13:32:12;12.60;;;2.83;;
3193;SDS011;1608;50.860;13.466;2022-10-03T13:34:50;6.40;;;2.60;;
3193;SDS011;1608;50.860;13.466;2022-10-03T13:37:49;8.90;;;2.83;;
3193;SDS011;1608;50.860;13.466;2022-10-03T13:40:30;4.50;;;1.87;;
3193;SDS011;1608;50.860;13.466;2022-10-03T13:43:02;6.80;;;2.43;;
3193;SDS011;1608;50.860;13.466;2022-10-03T13:45:35;9.93;;;3.00;;
3193;SDS011;1608;50.860;13.466;2022-10-03T13:48:09;3.13;;;2.23;;
3193;SDS011;1608;50.860;13.466;2022-10-03T13:50:40;5.67;;;2.83;;
3193;SDS011;1608;50.860;13.466;2022-10-03T13:53:18;7.17;;;2.70;;
3193;SDS011;1608;50.860;13.466;2022-10-03T13:55:52;5.73;;;2.00;;
3193;SDS011;1608;50.860;13.466;2022-10-03T13:58:30;3.90;;;2.30;;
3193;SDS011;1608;50.860;13.466;2022-10-03T14:01:12;4.33;;;2.23;;
3193;SDS011;1608;50.860;13.466;2022-10-03T14:03:52;6.37;;;2.70;;
3193;SDS011;1608;50.860;13.466;2022-10-03T14:06:35;6.87;;;2.60;;
3193;SDS011;1608;50.860;13.466;2022-10-03T14:09:19;11.90;;;3.47;;
3193;SDS011;1608;50.860;13.466;2022-10-03T14:11:58;3.43;;;2.33;;
3193;SDS011;1608;50.860;13.466;2022-10-03T14:14:36;3.07;;;2.27;;
3193;SDS011;1608;50.860;13.466;2022-10-03T14:17:16;7.80;;;3.17;;
3193;SDS011;1608;50.860;13.466;2022-10-03T14:19:52;4.60;;;1.80;;
3193;SDS011;1608;50.860;13.466;2022-10-03T14:22:35;4.17;;;2.50;;
3193;SDS011;1608;50.860;13.466;2022-10-03T14:25:15;6.90;;;2.50;;
3193;SDS011;1608;50.860;13.466;2022-10-03T14:27:49;4.73;;;1.63;;
3193;SDS011;1608;50.860;13.466;2022-10-03T14:30:20;6.50;;;2.50;;
3193;SDS011;1608;50.860;13.466;2022-10-03T14:32:56;7.60;;;2.47;;
3193;SDS011;1608;50.860;13.466;2022-10-03T14:35:38;8.50;;;2.17;;
3193;SDS011;1608;50.860;13.466;2022-10-03T14:38:22;5.33;;;2.07;;
3193;SDS011;1608;50.860;13.466;2022-10-03T14:41:10;6.03;;;2.40;;
3193;SDS011;1608;50.860;13.466;2022-10-03T14:43:44;3.33;;;2.03;;
3193;SDS011;1608;50.860;13.466;2022-10-03T14:46:16;10.33;;;2.33;;
3193;SDS011;1608;50.860;13.466;2022-10-03T14:48:45;3.10;;;2.20;;
3193;SDS011;1608;50.860;13.466;2022-10-03T14:51:15;12.30;;;2.57;;
3193;SDS011;1608;50.860;13.466;2022-10-03T14:53:46;5.17;;;2.73;;
3193;SDS011;1608;50.860;13.466;2022-10-03T14:56:19;4.70;;;2.97;;
3193;SDS011;1608;50.860;13.466;2022-10-03T14:58:49;5.23;;;2.47;;
3193;SDS011;1608;50.860;13.466;2022-10-03T15:01:19;5.33;;;2.53;;
3193;SDS011;1608;50.860;13.466;2022-10-03T15:03:51;4.17;;;3.20;;
3193;SDS011;1608;50.860;13.466;2022-10-03T15:06:33;3.00;;;2.30;;
3193;SDS011;1608;50.860;13.466;2022-10-03T15:09:14;9.30;;;3.33;;
3193;SDS011;1608;50.860;13.466;2022-10-03T15:11:44;9.73;;;3.00;;
3193;SDS011;1608;50.860;13.466;2022-10-03T15:14:13;8.47;;;2.63;;
3193;SDS011;1608;50.860;13.466;2022-10-03T15:16:44;6.23;;;2.43;;
3193;SDS011;1608;50.860;13.466;2022-10-03T15:19:16;6.13;;;2.80;;
3193;SDS011;1608;50.860;13.466;2022-10-03T15:21:45;6.80;;;3.07;;
3193;SDS011;1608;50.860;13.466;2022-10-03T15:24:17;4.20;;;2.87;;
3193;SDS011;1608;50.860;13.466;2022-10-03T15:26:48;6.67;;;2.80;;
3193;SDS011;1608;50.860;13.466;2022-10-03T15:29:16;5.63;;;2.70;;
3193;SDS011;1608;50.860;13.466;2022-10-03T15:31:46;3.27;;;2.30;;
3193;SDS011;1608;50.860;13.466;2022-10-03T15:34:14;9.07;;;2.93;;
3193;SDS011;1608;50.860;13.466;2022-10-03T15:36:45;3.30;;;2.30;;
3193;SDS011;1608;50.860;13.466;2022-10-03T15:39:18;6.30;;;2.10;;
3193;SDS011;1608;50.860;13.466;2022-10-03T15:41:53;5.00;;;2.73;;
3193;SDS011;1608;50.860;13.466;2022-10-03T15:44:28;2.70;;;2.27;;
3193;SDS011;1608;50.860;13.466;2022-10-03T15:47:04;6.90;;;2.53;;
3193;SDS011;1608;50.860;13.466;2022-10-03T15:49:36;6.70;;;3.07;;
3193;SDS011;1608;50.860;13.466;2022-10-03T15:52:06;6.03;;;2.93;;
3193;SDS011;1608;50.860;13.466;2022-10-03T15:54:39;5.07;;;2.70;;
3193;SDS011;1608;50.860;13.466;2022-10-03T15:57:16;4.10;;;2.30;;
3193;SDS011;1608;50.860;13.466;2022-10-03T15:59:48;5.63;;;2.77;;
3193;SDS011;1608;50.860;13.466;2022-10-03T16:02:20;6.20;;;2.93;;
3193;SDS011;1608;50.860;13.466;2022-10-03T16:04:51;4.47;;;3.40;;
3193;SDS011;1608;50.860;13.466;2022-10-03T16:07:22;8.77;;;2.80;;
3193;SDS011;1608;50.860;13.466;2022-10-03T16:09:54;4.27;;;2.20;;
3193;SDS011;1608;50.860;13.466;2022-10-03T16:12:38;8.00;;;2.80;;
3193;SDS011;1608;50.860;13.466;2022-10-03T16:15:20;7.50;;;2.70;;
3193;SDS011;1608;50.860;13.466;2022-10-03T16:17:53;6.03;;;2.50;;
3193;SDS011;1608;50.860;13.466;2022-10-03T16:20:23;4.87;;;2.10;;
3193;SDS011;1608;50.860;13.466;2022-10-03T16:22:54;6.23;;;2.13;;
3193;SDS011;1608;50.860;13.466;2022-10-03T16:25:23;5.33;;;2.17;;
3193;SDS011;1608;50.860;13.466;2022-10-03T16:27:53;3.63;;;2.20;;
3193;SDS011;1608;50.860;13.466;2022-10-03T16:30:25;2.53;;;1.90;;
3193;SDS011;1608;50.860;13.466;2022-10-03T16:32:59;5.17;;;2.23;;
3193;SDS011;1608;50.860;13.466;2022-10-03T16:35:31;5.30;;;2.40;;
3193;SDS011;1608;50.860;13.466;2022-10-03T16:38:02;3.73;;;3.33;;
3193;SDS011;1608;50.860;13.466;2022-10-03T16:40:33;7.07;;;2.10;;
3193;SDS011;1608;50.860;13.466;2022-10-03T16:43:02;3.60;;;1.73;;
3193;SDS011;1608;50.860;13.466;2022-10-03T16:45:34;8.63;;;2.70;;
3193;SDS011;1608;50.860;13.466;2022-10-03T16:48:10;5.63;;;2.40;;
3193;SDS011;1608;50.860;13.466;2022-10-03T16:51:00;13.70;;;3.17;;
3193;SDS011;1608;50.860;13.466;2022-10-03T16:53:29;3.50;;;2.90;;
3193;SDS011;1608;50.860;13.466;2022-10-03T16:55:57;4.57;;;2.70;;
3193;SDS011;1608;50.860;13.466;2022-10-03T16:58:30;13.77;;;2.47;;
3193;SDS011;1608;50.860;13.466;2022-10-03T17:01:03;4.63;;;3.07;;
3193;SDS011;1608;50.860;13.466;2022-10-03T17:03:35;4.50;;;2.33;;
3193;SDS011;1608;50.860;13.466;2022-10-03T17:06:12;5.77;;;2.50;;
3193;SDS011;1608;50.860;13.466;2022-10-03T17:08:47;4.90;;;2.33;;
3193;SDS011;1608;50.860;13.466;2022-10-03T17:11:17;3.97;;;2.43;;
3193;SDS011;1608;50.860;13.466;2022-10-03T17:13:49;6.83;;;2.57;;
3193;SDS011;1608;50.860;13.466;2022-10-03T17:16:20;8.30;;;2.80;;
3193;SDS011;1608;50.860;13.466;2022-10-03T17:19:02;5.83;;;2.73;;
3193;SDS011;1608;50.860;13.466;2022-10-03T17:21:38;6.70;;;2.90;;
3193;SDS011;1608;50.860;13.466;2022-10-03T17:24:09;5.23;;;2.23;;
3193;SDS011;1608;50.860;13.466;2022-10-03T17:26:39;9.33;;;3.40;;
3193;SDS011;1608;50.860;13.466;2022-10-03T17:29:09;3.30;;;2.37;;
3193;SDS011;1608;50.860;13.466;2022-10-03T17:31:43;4.70;;;2.50;;
3193;SDS011;1608;50.860;13.466;2022-10-03T17:34:13;3.63;;;2.27;;
3193;SDS011;1608;50.860;13.466;2022-10-03T17:36:55;20.07;;;3.73;;
3193;SDS011;1608;50.860;13.466;2022-10-03T17:39:36;3.93;;;3.00;;
3193;SDS011;1608;50.860;13.466;2022-10-03T17:42:12;8.00;;;4.53;;
3193;SDS011;1608;50.860;13.466;2022-10-03T17:44:53;5.53;;;2.90;;
3193;SDS011;1608;50.860;13.466;2022-10-03T17:47:26;7.67;;;3.10;;
3193;SDS011;1608;50.860;13.466;2022-10-03T17:50:04;3.77;;;2.30;;
3193;SDS011;1608;50.860;13.466;2022-10-03T17:52:37;4.83;;;2.73;;
3193;SDS011;1608;50.860;13.466;2022-10-03T17:55:06;2.90;;;2.57;;
3193;SDS011;1608;50.860;13.466;2022-10-03T17:57:43;6.07;;;3.50;;
3193;SDS011;1608;50.860;13.466;2022-10-03T18:00:16;6.90;;;2.70;;
3193;SDS011;1608;50.860;13.466;2022-10-03T18:02:50;5.17;;;2.70;;
3193;SDS011;1608;50.860;13.466;2022-10-03T18:05:28;4.37;;;3.00;;
3193;SDS011;1608;50.860;13.466;2022-10-03T18:08:00;11.63;;;2.63;;
3193;SDS011;1608;50.860;13.466;2022-10-03T18:10:32;3.53;;;2.77;;
3193;SDS011;1608;50.860;13.466;2022-10-03T18:13:05;8.83;;;3.43;;
3193;SDS011;1608;50.860;13.466;2022-10-03T18:15:39;6.50;;;2.70;;
3193;SDS011;1608;50.860;13.466;2022-10-03T18:21:21;8.00;;;3.00;;
3193;SDS011;1608;50.860;13.466;2022-10-03T18:24:09;8.37;;;3.20;;
3193;SDS011;1608;50.860;13.466;2022-10-03T18:26:43;8.53;;;4.00;;
3193;SDS011;1608;50.860;13.466;2022-10-03T18:29:16;3.40;;;2.50;;
3193;SDS011;1608;50.860;13.466;2022-10-03T18:31:46;9.00;;;3.77;;
3193;SDS011;1608;50.860;13.466;2022-10-03T18:34:22;3.10;;;2.77;;
3193;SDS011;1608;50.860;13.466;2022-10-03T18:37:00;6.33;;;4.40;;
3193;SDS011;1608;50.860;13.466;2022-10-03T18:39:43;4.73;;;3.03;;
3193;SDS011;1608;50.860;13.466;2022-10-03T18:42:11;4.30;;;3.40;;
3193;SDS011;1608;50.860;13.466;2022-10-03T18:44:41;4.80;;;3.03;;
3193;SDS011;1608;50.860;13.466;2022-10-03T18:47:12;5.20;;;4.03;;
3193;SDS011;1608;50.860;13.466;2022-10-03T18:49:47;5.70;;;4.43;;
3193;SDS011;1608;50.860;13.466;2022-10-03T18:52:22;3.90;;;3.20;;
3193;SDS011;1608;50.860;13.466;2022-10-03T18:54:56;10.43;;;3.43;;
3193;SDS011;1608;50.860;13.466;2022-10-03T18:57:28;9.10;;;2.50;;
3193;SDS011;1608;50.860;13.466;2022-10-03T19:00:03;3.53;;;1.97;;
3193;SDS011;1608;50.860;13.466;2022-10-03T19:02:33;2.43;;;2.10;;
3193;SDS011;1608;50.860;13.466;2022-10-03T19:05:06;5.13;;;1.70;;
3193;SDS011;1608;50.860;13.466;2022-10-03T19:07:43;2.80;;;1.50;;
3193;SDS011;1608;50.860;13.466;2022-10-03T19:10:22;2.60;;;1.73;;
3193;SDS011;1608;50.860;13.466;2022-10-03T19:12:57;3.17;;;2.03;;
3193;SDS011;1608;50.860;13.466;2022-10-03T19:15:34;3.93;;;2.53;;
3193;SDS011;1608;50.860;13.466;2022-10-03T19:18:09;4.60;;;3.23;;
3193;SDS011;1608;50.860;13.466;2022-10-03T19:20:45;2.80;;;2.53;;
3193;SDS011;1608;50.860;13.466;2022-10-03T19:23:17;5.83;;;3.53;;